createdAt,value
2024-03-16T00:01:51.518Z,78.35
2024-03-16T00:04:18.722Z,82.45
2024-03-16T00:06:46.126Z,87.95
2024-03-16T00:09:13.353Z,87.60
2024-03-16T00:11:40.649Z,83.13
2024-03-16T00:14:08.089Z,79.10
2024-03-16T00:16:35.382Z,84.63
2024-03-16T00:19:02.952Z,82.50
2024-03-16T00:21:30.232Z,80.80
2024-03-16T00:23:57.406Z,73.75
2024-03-16T00:26:24.586Z,80.05
2024-03-16T00:28:52.431Z,76.47
2024-03-16T00:31:19.763Z,79.13
2024-03-16T00:33:47.026Z,68.88
2024-03-16T00:36:14.291Z,70.47
2024-03-16T00:38:43.250Z,77.20
2024-03-16T00:41:10.436Z,67.10
2024-03-16T00:43:38.155Z,71.88
2024-03-16T00:46:05.427Z,76.20
2024-03-16T00:48:32.665Z,76.30
2024-03-16T00:50:59.933Z,76.10
2024-03-16T00:53:27.071Z,73.72
2024-03-16T00:55:54.238Z,81.80
2024-03-16T00:58:21.555Z,80.55
2024-03-16T01:00:48.761Z,75.63
2024-03-16T01:03:16.368Z,76.65
2024-03-16T01:05:43.559Z,78.97
2024-03-16T01:08:11.132Z,80.38
2024-03-16T01:10:38.655Z,76.72
2024-03-16T01:13:05.981Z,74.18
2024-03-16T01:15:33.914Z,73.85
2024-03-16T01:18:01.148Z,73.72
2024-03-16T01:20:29.218Z,64.22
2024-03-16T01:22:56.501Z,72.80
2024-03-16T01:25:23.772Z,67.68
2024-03-16T01:27:51.350Z,70.07
2024-03-16T01:30:18.545Z,76.35
2024-03-16T01:32:45.691Z,68.63
2024-03-16T01:35:13.576Z,70.63
2024-03-16T01:37:40.779Z,77.50
2024-03-16T01:40:08.345Z,66.97
2024-03-16T01:42:35.697Z,69.28
2024-03-16T01:45:23.208Z,68.70
2024-03-16T01:47:50.386Z,76.25
2024-03-16T01:50:20.957Z,68.45
2024-03-16T01:52:48.378Z,78.50
2024-03-16T01:55:16.111Z,71.22
2024-03-16T01:57:43.371Z,71.72
2024-03-16T02:00:12.884Z,72.10
2024-03-16T02:02:40.862Z,68.07
2024-03-16T02:05:09.284Z,74.97
2024-03-16T02:07:38.255Z,71.55
2024-03-16T02:10:10.109Z,76.50
2024-03-16T02:12:37.748Z,75.35
2024-03-16T02:15:05.157Z,79.47
2024-03-16T02:17:32.424Z,80.90
2024-03-16T02:19:59.598Z,71.60
2024-03-16T02:22:26.771Z,70.70
2024-03-16T02:24:54.194Z,69.72
2024-03-16T02:27:21.695Z,71.43
2024-03-16T02:29:49.288Z,67.35
2024-03-16T02:32:16.528Z,71.95
2024-03-16T02:34:45.092Z,65.03
2024-03-16T02:37:12.302Z,60.42
2024-03-16T02:39:39.562Z,61.85
2024-03-16T02:42:06.992Z,66.25
2024-03-16T02:44:34.235Z,57.40
2024-03-16T02:47:01.568Z,55.53
2024-03-16T02:49:29.006Z,53.10
2024-03-16T02:51:56.463Z,56.08
2024-03-16T02:54:24.855Z,49.03
2024-03-16T02:56:52.821Z,48.00
2024-03-16T02:59:20.575Z,48.53
2024-03-16T03:01:47.960Z,49.63
2024-03-16T03:04:15.970Z,49.97
2024-03-16T03:06:44.219Z,51.58
2024-03-16T03:09:11.729Z,53.47
2024-03-16T03:11:39.421Z,54.95
2024-03-16T03:14:09.879Z,49.35
2024-03-16T03:16:37.089Z,50.55
2024-03-16T03:19:04.342Z,56.67
2024-03-16T03:21:32.802Z,56.35
2024-03-16T03:24:01.056Z,64.07
2024-03-16T03:26:30.576Z,55.30
2024-03-16T03:28:58.793Z,63.13
2024-03-16T03:31:26.295Z,62.92
2024-03-16T03:33:53.868Z,60.85
2024-03-16T03:36:21.080Z,65.75
2024-03-16T03:38:49.193Z,67.53
2024-03-16T03:41:16.460Z,62.72
2024-03-16T03:43:48.423Z,60.67
2024-03-16T03:46:41.370Z,70.45
2024-03-16T03:49:27.110Z,69.25
2024-03-16T03:51:55.902Z,62.45
2024-03-16T03:54:23.212Z,69.68
2024-03-16T03:56:50.464Z,66.45
2024-03-16T03:59:17.654Z,57.35
2024-03-16T04:01:44.875Z,56.50
2024-03-16T04:04:12.118Z,60.67
2024-03-16T04:06:39.465Z,61.83
2024-03-16T04:09:06.630Z,58.97
2024-03-16T04:11:33.928Z,56.65
2024-03-16T04:14:01.322Z,57.88
2024-03-16T04:16:28.690Z,58.70
2024-03-16T04:18:55.862Z,53.92
2024-03-16T04:21:24.078Z,52.65
2024-03-16T04:23:51.273Z,50.45
2024-03-16T04:26:18.969Z,51.60
2024-03-16T04:28:46.161Z,51.60
2024-03-16T04:31:13.387Z,48.83
2024-03-16T04:33:40.554Z,48.92
2024-03-16T04:36:09.006Z,52.05
2024-03-16T04:38:36.557Z,51.42
2024-03-16T04:41:03.778Z,52.05
2024-03-16T04:43:31.450Z,51.90
2024-03-16T04:45:58.611Z,59.00
2024-03-16T04:48:25.870Z,53.42
2024-03-16T04:50:53.073Z,56.17
2024-03-16T04:53:20.220Z,54.53
2024-03-16T04:55:47.355Z,51.58
2024-03-16T04:58:14.646Z,50.78
2024-03-16T05:00:41.907Z,60.25
2024-03-16T05:03:10.949Z,59.45
2024-03-16T05:05:38.181Z,71.65
2024-03-16T05:08:05.518Z,58.85
2024-03-16T05:10:32.690Z,57.00
2024-03-16T05:12:59.882Z,55.55
2024-03-16T05:15:27.495Z,65.15
2024-03-16T05:17:54.744Z,56.85
2024-03-16T05:20:22.889Z,58.15
2024-03-16T05:22:50.167Z,57.15
2024-03-16T05:25:17.489Z,54.88
2024-03-16T05:27:44.981Z,58.83
2024-03-16T05:30:12.777Z,61.15
2024-03-16T05:32:40.081Z,59.90
2024-03-16T05:35:09.792Z,63.63
2024-03-16T05:37:37.259Z,64.55
2024-03-16T05:40:05.129Z,61.83
2024-03-16T05:42:34.600Z,52.88
2024-03-16T05:45:01.876Z,60.25
2024-03-16T05:47:29.070Z,59.97
2024-03-16T05:49:56.523Z,62.55
2024-03-16T05:52:23.808Z,63.95
2024-03-16T05:54:50.965Z,65.63
2024-03-16T05:57:18.214Z,58.70
2024-03-16T05:59:45.337Z,61.47
2024-03-16T06:02:12.502Z,60.17
2024-03-16T06:04:39.868Z,49.08
2024-03-16T06:07:07.140Z,48.97
2024-03-16T06:09:34.584Z,50.67
2024-03-16T06:12:02.304Z,52.35
2024-03-16T06:14:29.860Z,53.75
2024-03-16T06:16:58.095Z,48.95
2024-03-16T06:19:25.301Z,45.00
2024-03-16T06:21:52.485Z,37.97
2024-03-16T06:24:20.465Z,39.97
2024-03-16T06:26:55.623Z,37.10
2024-03-16T06:29:27.150Z,38.03
2024-03-16T06:32:06.307Z,32.22
2024-03-16T06:34:36.932Z,35.88
2024-03-16T06:37:05.235Z,32.88
2024-03-16T06:39:32.730Z,35.25
2024-03-16T06:41:59.951Z,33.60
2024-03-16T06:44:27.254Z,30.33
2024-03-16T06:46:54.756Z,30.38
2024-03-16T06:49:21.976Z,28.77
2024-03-16T06:51:49.207Z,29.52
2024-03-16T06:54:16.690Z,27.42
2024-03-16T06:56:43.827Z,26.05
2024-03-16T06:59:10.971Z,26.58
2024-03-16T07:01:39.239Z,26.90
2024-03-16T07:04:07.118Z,26.67
2024-03-16T07:06:34.352Z,25.50
2024-03-16T07:09:04.377Z,27.42
2024-03-16T07:11:31.669Z,26.80
2024-03-16T07:13:59.127Z,23.80
2024-03-16T07:16:26.729Z,19.95
2024-03-16T07:18:53.965Z,24.95
2024-03-16T07:21:25.029Z,20.73
2024-03-16T07:23:54.347Z,21.25
2024-03-16T07:26:21.517Z,20.98
2024-03-16T07:28:48.742Z,20.13
2024-03-16T07:31:17.073Z,19.65
2024-03-16T07:33:46.150Z,21.88
2024-03-16T07:36:13.800Z,19.33
2024-03-16T07:38:40.980Z,20.38
2024-03-16T07:41:09.886Z,18.27
2024-03-16T07:43:37.033Z,19.83
2024-03-16T07:46:05.592Z,17.02
2024-03-16T07:48:32.872Z,19.02
2024-03-16T07:51:05.441Z,20.67
2024-03-16T07:53:32.710Z,21.90
2024-03-16T07:55:59.868Z,17.33
2024-03-16T07:58:27.877Z,17.88
2024-03-16T08:00:55.175Z,18.25
2024-03-16T08:03:22.346Z,17.08
2024-03-16T08:05:49.589Z,17.75
2024-03-16T08:08:16.783Z,15.80
2024-03-16T08:10:43.985Z,13.18
2024-03-16T08:13:11.221Z,14.25
2024-03-16T08:15:38.489Z,17.35
2024-03-16T08:18:05.883Z,15.35
2024-03-16T08:20:33.431Z,15.93
2024-03-16T08:23:00.696Z,17.70
2024-03-16T08:25:31.218Z,16.55
2024-03-16T08:27:58.873Z,13.18
2024-03-16T08:30:29.418Z,15.38
2024-03-16T08:32:57.404Z,16.67
2024-03-16T08:35:24.646Z,19.98
2024-03-16T08:37:51.859Z,15.07
2024-03-16T08:40:19.667Z,13.70
2024-03-16T08:42:49.937Z,16.35
2024-03-16T08:45:20.045Z,17.33
2024-03-16T08:47:47.352Z,17.92
2024-03-16T08:50:14.629Z,17.88
2024-03-16T08:52:42.972Z,21.52
2024-03-16T08:55:14.550Z,19.55
2024-03-16T08:57:43.003Z,20.92
2024-03-16T09:00:15.050Z,23.15
2024-03-16T09:02:42.511Z,25.13
2024-03-16T09:05:09.837Z,23.48
2024-03-16T09:07:43.214Z,23.80
2024-03-16T09:10:14.006Z,19.95
2024-03-16T09:12:41.447Z,19.85
2024-03-16T09:15:12.531Z,22.85
2024-03-16T09:17:39.965Z,21.52
2024-03-16T09:20:11.496Z,20.75
2024-03-16T09:22:39.179Z,18.38
2024-03-16T09:25:07.520Z,21.02
2024-03-16T09:27:35.480Z,21.08
2024-03-16T09:30:06.181Z,18.48
2024-03-16T09:32:33.767Z,19.33
2024-03-16T09:35:01.053Z,23.67
2024-03-16T09:37:28.233Z,19.23
2024-03-16T09:39:55.464Z,21.23
2024-03-16T09:42:24.115Z,22.30
